QFA145 YSSY-NZAA
Flight info
| Callsign | QFA145 |
|---|---|
| Flight time | 2h 47m |
| Altitude | 39000 |
| Route | EVONN L521 LEGAN/N0483F410 L521 LUNBI |
| Aircraft | A35K/H-SDE2E3GHIJ3J4J5LM1ORWXY/LB1D1 |
Departure
| Time | 2026-04-25 05:43 |
|---|---|
| Airport | Sydney Kingsford Smith International Airport (YSSY) |
Arrival
| Time | 2026-04-25 08:30 |
|---|---|
| Airport | Auckland International Airport (NZAA) |
| Time | Latitude | Longitude | Altitude | Speed | Heading |
|---|---|---|---|---|---|
| 2026-04-25 05:09 | -33.93730 | 151.16940 | 36 ft | 0 kts | 254° |
| 2026-04-25 05:25 | -33.93729 | 151.16946 | 35 ft | 4 kts | 254° |
| 2026-04-25 05:25 | -33.93721 | 151.16977 | 33 ft | 4 kts | 247° |
| 2026-04-25 05:25 | -33.93713 | 151.16997 | 33 ft | 4 kts | 240° |
| 2026-04-25 05:26 | -33.93701 | 151.17022 | 33 ft | 4 kts | 250° |
| 2026-04-25 05:26 | -33.93698 | 151.17049 | 32 ft | 4 kts | 307° |
| 2026-04-25 05:26 | -33.93718 | 151.17060 | 33 ft | 4 kts | 0° |
| 2026-04-25 05:26 | -33.93745 | 151.17058 | 36 ft | 4 kts | 5° |
| 2026-04-25 05:27 | -33.93771 | 151.17058 | 35 ft | 3 kts | 347° |
| 2026-04-25 05:27 | -33.93798 | 151.17065 | 35 ft | 4 kts | 347° |
| 2026-04-25 05:27 | -33.93818 | 151.17071 | 35 ft | 0 kts | 347° |
| 2026-04-25 05:29 | -33.93817 | 151.17070 | 35 ft | 1 kts | 347° |
| 2026-04-25 05:29 | -33.93802 | 151.17066 | 34 ft | 4 kts | 347° |
| 2026-04-25 05:30 | -33.93769 | 151.17058 | 35 ft | 6 kts | 349° |
| 2026-04-25 05:30 | -33.93725 | 151.17068 | 35 ft | 7 kts | 31° |
| 2026-04-25 05:30 | -33.93711 | 151.17120 | 34 ft | 7 kts | 89° |
| 2026-04-25 05:30 | -33.93744 | 151.17164 | 33 ft | 8 kts | 156° |
| 2026-04-25 05:31 | -33.93809 | 151.17182 | 34 ft | 11 kts | 168° |
| 2026-04-25 05:31 | -33.93891 | 151.17204 | 35 ft | 13 kts | 168° |
| 2026-04-25 05:31 | -33.93989 | 151.17230 | 35 ft | 15 kts | 167° |
| 2026-04-25 05:31 | -33.94101 | 151.17259 | 35 ft | 18 kts | 168° |
| 2026-04-25 05:32 | -33.94230 | 151.17292 | 35 ft | 20 kts | 168° |
| 2026-04-25 05:32 | -33.94367 | 151.17328 | 36 ft | 21 kts | 168° |
| 2026-04-25 05:32 | -33.94516 | 151.17367 | 36 ft | 23 kts | 168° |
| 2026-04-25 05:32 | -33.94678 | 151.17409 | 36 ft | 25 kts | 168° |
| 2026-04-25 05:33 | -33.94852 | 151.17454 | 35 ft | 27 kts | 168° |
| 2026-04-25 05:33 | -33.95039 | 151.17503 | 35 ft | 28 kts | 168° |
| 2026-04-25 05:33 | -33.95224 | 151.17552 | 35 ft | 25 kts | 167° |
| 2026-04-25 05:33 | -33.95262 | 151.17601 | 35 ft | 5 kts | 91° |
| 2026-04-25 05:34 | -33.95260 | 151.17622 | 35 ft | 0 kts | 81° |
| 2026-04-25 05:34 | -33.95260 | 151.17623 | 35 ft | 1 kts | 81° |
| 2026-04-25 05:34 | -33.95256 | 151.17645 | 35 ft | 4 kts | 78° |
| 2026-04-25 05:35 | -33.95249 | 151.17688 | 35 ft | 7 kts | 78° |
| 2026-04-25 05:35 | -33.95238 | 151.17751 | 35 ft | 8 kts | 78° |
| 2026-04-25 05:35 | -33.95225 | 151.17827 | 35 ft | 10 kts | 78° |
| 2026-04-25 05:35 | -33.95209 | 151.17916 | 36 ft | 12 kts | 77° |
| 2026-04-25 05:36 | -33.95190 | 151.18020 | 36 ft | 14 kts | 77° |
| 2026-04-25 05:36 | -33.95168 | 151.18139 | 36 ft | 16 kts | 78° |
| 2026-04-25 05:36 | -33.95144 | 151.18274 | 36 ft | 17 kts | 78° |
| 2026-04-25 05:36 | -33.95125 | 151.18374 | 36 ft | 0 kts | 77° |
| 2026-04-25 05:37 | -33.95124 | 151.18384 | 36 ft | 4 kts | 77° |
| 2026-04-25 05:37 | -33.95116 | 151.18430 | 36 ft | 7 kts | 80° |
| 2026-04-25 05:37 | -33.95117 | 151.18500 | 36 ft | 9 kts | 102° |
| 2026-04-25 05:38 | -33.95149 | 151.18578 | 36 ft | 11 kts | 132° |
| 2026-04-25 05:38 | -33.95213 | 151.18649 | 36 ft | 14 kts | 138° |
| 2026-04-25 05:38 | -33.95300 | 151.18712 | 36 ft | 16 kts | 161° |
| 2026-04-25 05:38 | -33.95414 | 151.18743 | 36 ft | 18 kts | 168° |
| 2026-04-25 05:39 | -33.95544 | 151.18777 | 36 ft | 21 kts | 168° |
| 2026-04-25 05:39 | -33.95692 | 151.18816 | 36 ft | 23 kts | 168° |
| 2026-04-25 05:39 | -33.95856 | 151.18859 | 36 ft | 25 kts | 168° |
| 2026-04-25 05:39 | -33.96029 | 151.18904 | 36 ft | 27 kts | 168° |
| 2026-04-25 05:40 | -33.96218 | 151.18953 | 36 ft | 29 kts | 168° |
| 2026-04-25 05:40 | -33.96419 | 151.19005 | 36 ft | 30 kts | 167° |
| 2026-04-25 05:40 | -33.96632 | 151.19061 | 36 ft | 32 kts | 167° |
| 2026-04-25 05:40 | -33.96809 | 151.19064 | 36 ft | 26 kts | 180° |
| 2026-04-25 05:41 | -33.96977 | 151.19104 | 36 ft | 18 kts | 168° |
| 2026-04-25 05:41 | -33.97104 | 151.19147 | 36 ft | 19 kts | 141° |
| 2026-04-25 05:41 | -33.97119 | 151.19237 | 35 ft | 10 kts | 77° |
| 2026-04-25 05:41 | -33.97099 | 151.19342 | 31 ft | 16 kts | 76° |
| 2026-04-25 05:42 | -33.97069 | 151.19372 | 31 ft | 5 kts | 6° |
| 2026-04-25 05:42 | -33.97052 | 151.19369 | 31 ft | 0 kts | 349° |
| 2026-04-25 05:42 | -33.97050 | 151.19369 | 31 ft | 5 kts | 349° |
| 2026-04-25 05:42 | -33.96710 | 151.19282 | 29 ft | 95 kts | 348° |
| 2026-04-25 05:43 | -33.95808 | 151.19041 | 89 ft | 165 kts | 351° |
| 2026-04-25 05:43 | -33.94703 | 151.18755 | 1033 ft | 159 kts | 355° |
| 2026-04-25 05:43 | -33.93624 | 151.19101 | 1683 ft | 171 kts | 39° |
| 2026-04-25 05:43 | -33.93062 | 151.20418 | 1985 ft | 194 kts | 85° |
| 2026-04-25 05:44 | -33.93425 | 151.22014 | 2453 ft | 207 kts | 122° |
| 2026-04-25 05:44 | -33.94198 | 151.23492 | 2993 ft | 210 kts | 105° |
| 2026-04-25 05:44 | -33.94294 | 151.25260 | 3412 ft | 221 kts | 83° |
| 2026-04-25 05:44 | -33.94115 | 151.27188 | 3711 ft | 242 kts | 81° |
| 2026-04-25 05:45 | -33.93931 | 151.29279 | 4090 ft | 257 kts | 83° |
| 2026-04-25 05:45 | -33.93789 | 151.31446 | 4693 ft | 262 kts | 84° |
| 2026-04-25 05:45 | -33.93681 | 151.33660 | 5337 ft | 266 kts | 85° |
| 2026-04-25 05:45 | -33.93673 | 151.35894 | 6008 ft | 268 kts | 95° |
| 2026-04-25 05:46 | -33.94074 | 151.38097 | 6661 ft | 272 kts | 107° |
| 2026-04-25 05:46 | -33.94713 | 151.40261 | 7277 ft | 275 kts | 112° |
| 2026-04-25 05:46 | -33.95473 | 151.42358 | 7927 ft | 276 kts | 115° |
| 2026-04-25 05:46 | -33.96296 | 151.44418 | 8595 ft | 277 kts | 116° |
| 2026-04-25 05:47 | -33.97159 | 151.46494 | 9284 ft | 277 kts | 117° |
| 2026-04-25 05:47 | -33.98038 | 151.48584 | 9930 ft | 281 kts | 117° |
| 2026-04-25 05:47 | -33.98930 | 151.50718 | 10363 ft | 292 kts | 117° |
| 2026-04-25 05:47 | -33.99854 | 151.52969 | 10590 ft | 308 kts | 116° |
| 2026-04-25 05:48 | -34.00807 | 151.55338 | 10835 ft | 322 kts | 116° |
| 2026-04-25 05:48 | -34.01793 | 151.57821 | 11054 ft | 335 kts | 116° |
| 2026-04-25 05:48 | -34.02815 | 151.60415 | 11259 ft | 348 kts | 116° |
| 2026-04-25 05:48 | -34.03864 | 151.63089 | 11566 ft | 356 kts | 116° |
| 2026-04-25 05:49 | -34.04929 | 151.65803 | 11930 ft | 362 kts | 116° |
| 2026-04-25 05:49 | -34.06014 | 151.68568 | 12364 ft | 365 kts | 116° |
| 2026-04-25 05:49 | -34.07102 | 151.71340 | 12846 ft | 367 kts | 116° |
| 2026-04-25 05:49 | -34.08200 | 151.74136 | 13328 ft | 370 kts | 116° |
| 2026-04-25 05:50 | -34.09303 | 151.76948 | 13793 ft | 372 kts | 116° |
| 2026-04-25 05:50 | -34.10415 | 151.79784 | 14249 ft | 374 kts | 116° |
| 2026-04-25 05:50 | -34.11531 | 151.82632 | 14657 ft | 377 kts | 116° |
| 2026-04-25 05:50 | -34.12653 | 151.85500 | 15076 ft | 378 kts | 116° |
| 2026-04-25 05:51 | -34.13777 | 151.88374 | 15517 ft | 380 kts | 116° |
| 2026-04-25 05:51 | -34.14908 | 151.91267 | 15946 ft | 382 kts | 116° |
| 2026-04-25 05:51 | -34.16029 | 151.94140 | 16371 ft | 384 kts | 116° |
| 2026-04-25 05:51 | -34.17184 | 151.97102 | 16797 ft | 386 kts | 116° |
| 2026-04-25 05:52 | -34.18317 | 152.00011 | 17221 ft | 388 kts | 116° |
| 2026-04-25 05:52 | -34.19405 | 152.03001 | 17637 ft | 390 kts | 112° |
| 2026-04-25 05:52 | -34.20382 | 152.06072 | 18057 ft | 392 kts | 111° |
| 2026-04-25 05:52 | -34.21321 | 152.09176 | 18460 ft | 395 kts | 110° |
| 2026-04-25 05:53 | -34.22243 | 152.12315 | 18847 ft | 397 kts | 110° |
| 2026-04-25 05:53 | -34.23155 | 152.15467 | 19205 ft | 398 kts | 110° |
| 2026-04-25 05:53 | -34.24066 | 152.18634 | 19572 ft | 399 kts | 110° |
| 2026-04-25 05:53 | -34.24981 | 152.21812 | 19933 ft | 401 kts | 110° |
| 2026-04-25 05:54 | -34.25902 | 152.25006 | 20284 ft | 402 kts | 110° |
| 2026-04-25 05:54 | -34.26827 | 152.28206 | 20640 ft | 404 kts | 110° |
| 2026-04-25 05:54 | -34.28688 | 152.34640 | 21365 ft | 407 kts | 110° |
| 2026-04-25 05:55 | -34.29620 | 152.37866 | 21696 ft | 408 kts | 110° |
| 2026-04-25 05:55 | -34.30558 | 152.41114 | 22042 ft | 410 kts | 110° |
| 2026-04-25 05:55 | -34.31500 | 152.44379 | 22386 ft | 411 kts | 110° |
| 2026-04-25 05:55 | -34.32443 | 152.47654 | 22714 ft | 413 kts | 110° |
| 2026-04-25 05:56 | -34.33387 | 152.50937 | 23036 ft | 414 kts | 110° |
| 2026-04-25 05:56 | -34.34335 | 152.54235 | 23363 ft | 416 kts | 110° |
| 2026-04-25 05:56 | -34.35274 | 152.57507 | 23715 ft | 417 kts | 110° |
| 2026-04-25 05:56 | -34.36227 | 152.60833 | 24021 ft | 418 kts | 110° |
| 2026-04-25 05:57 | -34.37180 | 152.64161 | 24261 ft | 420 kts | 110° |
| 2026-04-25 05:57 | -34.38136 | 152.67506 | 24502 ft | 422 kts | 110° |
| 2026-04-25 05:57 | -34.39097 | 152.70869 | 24747 ft | 423 kts | 110° |
| 2026-04-25 05:57 | -34.40060 | 152.74244 | 24996 ft | 425 kts | 110° |
| 2026-04-25 05:58 | -34.41025 | 152.77631 | 25232 ft | 427 kts | 110° |
| 2026-04-25 05:58 | -34.41995 | 152.81041 | 25480 ft | 428 kts | 110° |
| 2026-04-25 05:58 | -34.42968 | 152.84462 | 25740 ft | 430 kts | 110° |
| 2026-04-25 05:58 | -34.43938 | 152.87880 | 26011 ft | 431 kts | 110° |
| 2026-04-25 05:59 | -34.44914 | 152.91321 | 26253 ft | 432 kts | 110° |
| 2026-04-25 05:59 | -34.45893 | 152.94777 | 26514 ft | 434 kts | 110° |
| 2026-04-25 05:59 | -34.46860 | 152.98196 | 26778 ft | 436 kts | 110° |
| 2026-04-25 05:59 | -34.47844 | 153.01680 | 27054 ft | 438 kts | 110° |
| 2026-04-25 06:00 | -34.48831 | 153.05177 | 27333 ft | 439 kts | 110° |
| 2026-04-25 06:00 | -34.49819 | 153.08686 | 27623 ft | 441 kts | 110° |
| 2026-04-25 06:00 | -34.50814 | 153.12217 | 27915 ft | 443 kts | 110° |
| 2026-04-25 06:00 | -34.51809 | 153.15759 | 28240 ft | 445 kts | 110° |
| 2026-04-25 06:01 | -34.52808 | 153.19319 | 28559 ft | 446 kts | 110° |
| 2026-04-25 06:01 | -34.53810 | 153.22891 | 28847 ft | 449 kts | 110° |
| 2026-04-25 06:01 | -34.54816 | 153.26484 | 29137 ft | 451 kts | 110° |
| 2026-04-25 06:01 | -34.55826 | 153.30096 | 29458 ft | 453 kts | 110° |
| 2026-04-25 06:02 | -34.56841 | 153.33728 | 29769 ft | 455 kts | 110° |
| 2026-04-25 06:02 | -34.57859 | 153.37378 | 30079 ft | 457 kts | 110° |
| 2026-04-25 06:02 | -34.58880 | 153.41043 | 30377 ft | 459 kts | 110° |
| 2026-04-25 06:02 | -34.59891 | 153.44675 | 30648 ft | 462 kts | 110° |
| 2026-04-25 06:03 | -34.60919 | 153.48377 | 30922 ft | 463 kts | 110° |
| 2026-04-25 06:03 | -34.61951 | 153.52093 | 31201 ft | 465 kts | 110° |
| 2026-04-25 06:03 | -34.62984 | 153.55821 | 31489 ft | 467 kts | 110° |
| 2026-04-25 06:03 | -34.64019 | 153.59564 | 31741 ft | 469 kts | 110° |
| 2026-04-25 06:04 | -34.65057 | 153.63319 | 32000 ft | 470 kts | 110° |
| 2026-04-25 06:04 | -34.66102 | 153.67105 | 32237 ft | 472 kts | 110° |
| 2026-04-25 06:04 | -34.67144 | 153.70888 | 32482 ft | 473 kts | 110° |
| 2026-04-25 06:04 | -34.68191 | 153.74692 | 32775 ft | 473 kts | 110° |
| 2026-04-25 06:05 | -34.69234 | 153.78489 | 33194 ft | 471 kts | 110° |
| 2026-04-25 06:05 | -34.70253 | 153.82207 | 33584 ft | 469 kts | 111° |
| 2026-04-25 06:05 | -34.71281 | 153.85958 | 33927 ft | 468 kts | 111° |
| 2026-04-25 06:05 | -34.72309 | 153.89717 | 34276 ft | 467 kts | 111° |
| 2026-04-25 06:06 | -34.73331 | 153.93457 | 34594 ft | 466 kts | 111° |
| 2026-04-25 06:06 | -34.74351 | 153.97192 | 34895 ft | 465 kts | 111° |
| 2026-04-25 06:06 | -34.75371 | 154.00937 | 35181 ft | 464 kts | 111° |
| 2026-04-25 06:06 | -34.76384 | 154.04661 | 35469 ft | 464 kts | 111° |
| 2026-04-25 06:07 | -34.77395 | 154.08379 | 35805 ft | 462 kts | 111° |
| 2026-04-25 06:07 | -34.78401 | 154.12085 | 36143 ft | 460 kts | 110° |
| 2026-04-25 06:07 | -34.79401 | 154.15775 | 36451 ft | 460 kts | 110° |
| 2026-04-25 06:07 | -34.80404 | 154.19480 | 36722 ft | 459 kts | 110° |
| 2026-04-25 06:08 | -34.81399 | 154.23162 | 36953 ft | 460 kts | 110° |
| 2026-04-25 06:08 | -34.82398 | 154.26859 | 37255 ft | 459 kts | 110° |
| 2026-04-25 06:08 | -34.83393 | 154.30549 | 37553 ft | 458 kts | 110° |
| 2026-04-25 06:08 | -34.84381 | 154.34220 | 37822 ft | 457 kts | 110° |
| 2026-04-25 06:09 | -34.85352 | 154.37831 | 38118 ft | 456 kts | 110° |
| 2026-04-25 06:09 | -34.86349 | 154.41547 | 38449 ft | 453 kts | 110° |
| 2026-04-25 06:09 | -34.87315 | 154.45149 | 38725 ft | 452 kts | 110° |
| 2026-04-25 06:09 | -34.88289 | 154.48786 | 38939 ft | 452 kts | 110° |
| 2026-04-25 06:10 | -34.89261 | 154.52421 | 39149 ft | 452 kts | 110° |
| 2026-04-25 06:10 | -34.90237 | 154.56071 | 39293 ft | 452 kts | 110° |
| 2026-04-25 06:10 | -34.91212 | 154.59726 | 39398 ft | 454 kts | 110° |
| 2026-04-25 06:10 | -34.92185 | 154.63379 | 39421 ft | 454 kts | 110° |
| 2026-04-25 06:11 | -34.93805 | 154.69470 | 39422 ft | 454 kts | 110° |
| 2026-04-25 06:11 | -34.95746 | 154.76792 | 39422 ft | 453 kts | 110° |
| 2026-04-25 06:12 | -34.97681 | 154.84109 | 39422 ft | 453 kts | 110° |
| 2026-04-25 06:12 | -34.99612 | 154.91430 | 39422 ft | 454 kts | 110° |
| 2026-04-25 06:13 | -35.01544 | 154.98776 | 39432 ft | 454 kts | 110° |
| 2026-04-25 06:14 | -35.04424 | 155.09765 | 39425 ft | 453 kts | 109° |
| 2026-04-25 06:14 | -35.06337 | 155.17094 | 39419 ft | 453 kts | 109° |
| 2026-04-25 06:15 | -35.08250 | 155.24439 | 39428 ft | 454 kts | 109° |
| 2026-04-25 06:15 | -35.10160 | 155.31795 | 39427 ft | 454 kts | 109° |
| 2026-04-25 06:16 | -35.12052 | 155.39106 | 39427 ft | 454 kts | 109° |
| 2026-04-25 06:16 | -35.13956 | 155.46480 | 39428 ft | 454 kts | 109° |
| 2026-04-25 06:17 | -35.15853 | 155.53849 | 39427 ft | 454 kts | 109° |
| 2026-04-25 06:17 | -35.17746 | 155.61222 | 39427 ft | 454 kts | 109° |
| 2026-04-25 06:18 | -35.19621 | 155.68545 | 39433 ft | 454 kts | 109° |
| 2026-04-25 06:18 | -35.21501 | 155.75908 | 39433 ft | 454 kts | 109° |
| 2026-04-25 06:19 | -35.23380 | 155.83289 | 39433 ft | 454 kts | 109° |
| 2026-04-25 06:19 | -35.25255 | 155.90677 | 39433 ft | 454 kts | 109° |
| 2026-04-25 06:20 | -35.27123 | 155.98055 | 39433 ft | 453 kts | 109° |
| 2026-04-25 06:20 | -35.28982 | 156.05422 | 39433 ft | 453 kts | 109° |
| 2026-04-25 06:21 | -35.30839 | 156.12799 | 39435 ft | 453 kts | 109° |
| 2026-04-25 06:21 | -35.32679 | 156.20133 | 39433 ft | 453 kts | 109° |
| 2026-04-25 06:22 | -35.34525 | 156.27509 | 39437 ft | 453 kts | 109° |
| 2026-04-25 06:22 | -35.36367 | 156.34889 | 39435 ft | 453 kts | 109° |
| 2026-04-25 06:23 | -35.38206 | 156.42283 | 39438 ft | 453 kts | 109° |
| 2026-04-25 06:23 | -35.40039 | 156.49670 | 39438 ft | 453 kts | 108° |
| 2026-04-25 06:24 | -35.41867 | 156.57060 | 39438 ft | 453 kts | 108° |
| 2026-04-25 06:24 | -35.43691 | 156.64454 | 39438 ft | 453 kts | 108° |
| 2026-04-25 06:25 | -35.45513 | 156.71862 | 39441 ft | 453 kts | 108° |
| 2026-04-25 06:25 | -35.47319 | 156.79227 | 39441 ft | 453 kts | 108° |
| 2026-04-25 06:26 | -35.49131 | 156.86642 | 39438 ft | 453 kts | 108° |
| 2026-04-25 06:26 | -35.50937 | 156.94049 | 39436 ft | 453 kts | 108° |
| 2026-04-25 06:27 | -35.52740 | 157.01472 | 39436 ft | 453 kts | 108° |
| 2026-04-25 06:27 | -35.54538 | 157.08893 | 39436 ft | 453 kts | 108° |
| 2026-04-25 06:28 | -35.56334 | 157.16328 | 39445 ft | 453 kts | 108° |
| 2026-04-25 06:28 | -35.58123 | 157.23753 | 39444 ft | 453 kts | 108° |
| 2026-04-25 06:29 | -35.59910 | 157.31195 | 39443 ft | 454 kts | 108° |
| 2026-04-25 06:29 | -35.61689 | 157.38625 | 39444 ft | 454 kts | 108° |
| 2026-04-25 06:30 | -35.63454 | 157.46019 | 39446 ft | 454 kts | 108° |
| 2026-04-25 06:30 | -35.65226 | 157.53467 | 39446 ft | 454 kts | 108° |
| 2026-04-25 06:31 | -35.66995 | 157.60923 | 39444 ft | 454 kts | 107° |
| 2026-04-25 06:31 | -35.68759 | 157.68378 | 39443 ft | 454 kts | 107° |
| 2026-04-25 06:32 | -35.70516 | 157.75831 | 39448 ft | 454 kts | 107° |
| 2026-04-25 06:32 | -35.72271 | 157.83296 | 39444 ft | 454 kts | 107° |
| 2026-04-25 06:33 | -35.74022 | 157.90765 | 39445 ft | 454 kts | 107° |
| 2026-04-25 06:33 | -35.75766 | 157.98229 | 39441 ft | 454 kts | 107° |
| 2026-04-25 06:34 | -35.77510 | 158.05718 | 39442 ft | 454 kts | 107° |
| 2026-04-25 06:34 | -35.79074 | 158.13260 | 39444 ft | 455 kts | 104° |
| 2026-04-25 06:35 | -35.80362 | 158.20904 | 39451 ft | 455 kts | 102° |
| 2026-04-25 06:35 | -35.81613 | 158.28556 | 39444 ft | 456 kts | 103° |
| 2026-04-25 06:36 | -35.82887 | 158.36158 | 39443 ft | 456 kts | 103° |
| 2026-04-25 06:36 | -35.84184 | 158.43801 | 39444 ft | 456 kts | 103° |
| 2026-04-25 06:37 | -35.85483 | 158.51448 | 39444 ft | 456 kts | 103° |
| 2026-04-25 06:37 | -35.86776 | 158.59100 | 39444 ft | 456 kts | 103° |
| 2026-04-25 06:38 | -35.88062 | 158.66752 | 39443 ft | 456 kts | 103° |
| 2026-04-25 06:38 | -35.89346 | 158.74423 | 39444 ft | 456 kts | 103° |
| 2026-04-25 06:39 | -35.90622 | 158.82078 | 39444 ft | 456 kts | 103° |
| 2026-04-25 06:39 | -35.91894 | 158.89739 | 39444 ft | 456 kts | 103° |
| 2026-04-25 06:40 | -35.93156 | 158.97370 | 39445 ft | 456 kts | 102° |
| 2026-04-25 06:40 | -35.94420 | 159.05048 | 39443 ft | 456 kts | 102° |
| 2026-04-25 06:41 | -35.95679 | 159.12729 | 39442 ft | 456 kts | 102° |
| 2026-04-25 06:41 | -35.96935 | 159.20425 | 39451 ft | 457 kts | 102° |
| 2026-04-25 06:42 | -35.98185 | 159.28111 | 39442 ft | 457 kts | 102° |
| 2026-04-25 06:42 | -35.99424 | 159.35766 | 39444 ft | 457 kts | 102° |
| 2026-04-25 06:43 | -36.00664 | 159.43460 | 39442 ft | 457 kts | 102° |
| 2026-04-25 06:43 | -36.01900 | 159.51159 | 39440 ft | 457 kts | 102° |
| 2026-04-25 06:44 | -36.03126 | 159.58828 | 39445 ft | 457 kts | 102° |
| 2026-04-25 06:44 | -36.04359 | 159.66581 | 39443 ft | 457 kts | 102° |
| 2026-04-25 06:45 | -36.05582 | 159.74296 | 39443 ft | 457 kts | 102° |
| 2026-04-25 06:45 | -36.06800 | 159.82021 | 39444 ft | 457 kts | 102° |
| 2026-04-25 06:46 | -36.08012 | 159.89737 | 39443 ft | 458 kts | 102° |
| 2026-04-25 06:46 | -36.09222 | 159.97474 | 39441 ft | 458 kts | 101° |
| 2026-04-25 06:47 | -36.10419 | 160.05163 | 39444 ft | 458 kts | 101° |
| 2026-04-25 06:47 | -36.11618 | 160.12899 | 39443 ft | 458 kts | 101° |
| 2026-04-25 06:48 | -36.12814 | 160.20653 | 39440 ft | 458 kts | 101° |
| 2026-04-25 06:48 | -36.14003 | 160.28391 | 39441 ft | 458 kts | 101° |
| 2026-04-25 06:49 | -36.15187 | 160.36137 | 39446 ft | 458 kts | 101° |
| 2026-04-25 06:49 | -36.16366 | 160.43882 | 39446 ft | 458 kts | 101° |
| 2026-04-25 06:50 | -36.17541 | 160.51636 | 39444 ft | 458 kts | 101° |
| 2026-04-25 06:50 | -36.18711 | 160.59390 | 39447 ft | 458 kts | 101° |
| 2026-04-25 06:51 | -36.19876 | 160.67146 | 39439 ft | 458 kts | 101° |
| 2026-04-25 06:51 | -36.21027 | 160.74853 | 39436 ft | 458 kts | 101° |
| 2026-04-25 06:52 | -36.22183 | 160.82618 | 39440 ft | 458 kts | 101° |
| 2026-04-25 06:52 | -36.23331 | 160.90375 | 39437 ft | 458 kts | 101° |
| 2026-04-25 06:53 | -36.24476 | 160.98144 | 39435 ft | 458 kts | 101° |
| 2026-04-25 06:53 | -36.25616 | 161.05911 | 39429 ft | 458 kts | 101° |
| 2026-04-25 06:54 | -36.26751 | 161.13681 | 39436 ft | 458 kts | 101° |
| 2026-04-25 06:54 | -36.27882 | 161.21465 | 39439 ft | 458 kts | 100° |
| 2026-04-25 06:55 | -36.28817 | 161.27930 | 39447 ft | 458 kts | 100° |
| 2026-04-25 06:55 | -36.30121 | 161.36981 | 39449 ft | 458 kts | 100° |
| 2026-04-25 06:56 | -36.31237 | 161.44776 | 39447 ft | 458 kts | 100° |
| 2026-04-25 06:56 | -36.32158 | 161.51227 | 39436 ft | 458 kts | 100° |
| 2026-04-25 06:57 | -36.33264 | 161.59014 | 39439 ft | 458 kts | 100° |
| 2026-04-25 06:57 | -36.34367 | 161.66824 | 39436 ft | 459 kts | 100° |
| 2026-04-25 06:58 | -36.35463 | 161.74618 | 39447 ft | 459 kts | 100° |
| 2026-04-25 06:58 | -36.36555 | 161.82420 | 39430 ft | 459 kts | 100° |
| 2026-04-25 06:59 | -36.37643 | 161.90231 | 39441 ft | 459 kts | 100° |
| 2026-04-25 06:59 | -36.38724 | 161.98037 | 39437 ft | 459 kts | 100° |
| 2026-04-25 07:00 | -36.39793 | 162.05789 | 39446 ft | 459 kts | 100° |
| 2026-04-25 07:00 | -36.40864 | 162.13595 | 39447 ft | 459 kts | 100° |
| 2026-04-25 07:01 | -36.41930 | 162.21404 | 39446 ft | 459 kts | 100° |
| 2026-04-25 07:01 | -36.42991 | 162.29214 | 39443 ft | 459 kts | 99° |
| 2026-04-25 07:02 | -36.44047 | 162.37029 | 39427 ft | 459 kts | 99° |
| 2026-04-25 07:02 | -36.45097 | 162.44845 | 39433 ft | 459 kts | 99° |
| 2026-04-25 07:03 | -36.46143 | 162.52667 | 39429 ft | 459 kts | 99° |
| 2026-04-25 07:03 | -36.47186 | 162.60504 | 39442 ft | 459 kts | 99° |
| 2026-04-25 07:04 | -36.48222 | 162.68331 | 39437 ft | 459 kts | 99° |
| 2026-04-25 07:04 | -36.49249 | 162.76127 | 39428 ft | 459 kts | 99° |
| 2026-04-25 07:05 | -36.50276 | 162.83969 | 39428 ft | 459 kts | 99° |
| 2026-04-25 07:05 | -36.51299 | 162.91824 | 39427 ft | 459 kts | 99° |
| 2026-04-25 07:06 | -36.52315 | 162.99662 | 39436 ft | 460 kts | 99° |
| 2026-04-25 07:06 | -36.53325 | 163.07512 | 39420 ft | 460 kts | 99° |
| 2026-04-25 07:07 | -36.54330 | 163.15366 | 39425 ft | 460 kts | 99° |
| 2026-04-25 07:07 | -36.55332 | 163.23240 | 39427 ft | 460 kts | 99° |
| 2026-04-25 07:08 | -36.56326 | 163.31096 | 39427 ft | 460 kts | 99° |
| 2026-04-25 07:08 | -36.57311 | 163.38912 | 39430 ft | 460 kts | 99° |
| 2026-04-25 07:09 | -36.58297 | 163.46784 | 39423 ft | 461 kts | 99° |
| 2026-04-25 07:09 | -36.59278 | 163.54663 | 39433 ft | 461 kts | 99° |
| 2026-04-25 07:10 | -36.60254 | 163.62544 | 39423 ft | 461 kts | 99° |
| 2026-04-25 07:10 | -36.61226 | 163.70429 | 39424 ft | 461 kts | 99° |
| 2026-04-25 07:11 | -36.62192 | 163.78319 | 39417 ft | 461 kts | 99° |
| 2026-04-25 07:11 | -36.63148 | 163.86165 | 39413 ft | 461 kts | 99° |
| 2026-04-25 07:12 | -36.64104 | 163.94063 | 39419 ft | 461 kts | 98° |
| 2026-04-25 07:12 | -36.65529 | 164.05910 | 39428 ft | 461 kts | 98° |
| 2026-04-25 07:13 | -36.66474 | 164.13826 | 39412 ft | 462 kts | 98° |
| 2026-04-25 07:13 | -36.67413 | 164.21743 | 39406 ft | 462 kts | 98° |
| 2026-04-25 07:14 | -36.68347 | 164.29657 | 39417 ft | 462 kts | 98° |
| 2026-04-25 07:14 | -36.69277 | 164.37584 | 39415 ft | 462 kts | 98° |
| 2026-04-25 07:15 | -36.70201 | 164.45504 | 39411 ft | 462 kts | 98° |
| 2026-04-25 07:15 | -36.71115 | 164.53387 | 39413 ft | 462 kts | 98° |
| 2026-04-25 07:16 | -36.72030 | 164.61326 | 39410 ft | 463 kts | 98° |
| 2026-04-25 07:16 | -36.72941 | 164.69283 | 39416 ft | 463 kts | 98° |
| 2026-04-25 07:17 | -36.73845 | 164.77226 | 39406 ft | 463 kts | 98° |
| 2026-04-25 07:17 | -36.74746 | 164.85182 | 39419 ft | 463 kts | 98° |
| 2026-04-25 07:18 | -36.75637 | 164.93104 | 39413 ft | 463 kts | 98° |
| 2026-04-25 07:18 | -36.76527 | 165.01068 | 39401 ft | 463 kts | 98° |
| 2026-04-25 07:19 | -36.77412 | 165.09029 | 39413 ft | 463 kts | 98° |
| 2026-04-25 07:19 | -36.78292 | 165.17003 | 39401 ft | 464 kts | 98° |
| 2026-04-25 07:20 | -36.79169 | 165.24998 | 39394 ft | 464 kts | 98° |
| 2026-04-25 07:20 | -36.80035 | 165.32941 | 39398 ft | 465 kts | 98° |
| 2026-04-25 07:21 | -36.80903 | 165.40952 | 39401 ft | 465 kts | 98° |
| 2026-04-25 07:21 | -36.81764 | 165.48951 | 39403 ft | 465 kts | 98° |
| 2026-04-25 07:22 | -36.82620 | 165.56956 | 39402 ft | 465 kts | 98° |
| 2026-04-25 07:22 | -36.83471 | 165.64972 | 39397 ft | 466 kts | 98° |
| 2026-04-25 07:23 | -36.84318 | 165.72997 | 39410 ft | 465 kts | 98° |
| 2026-04-25 07:23 | -36.85153 | 165.80962 | 39393 ft | 465 kts | 98° |
| 2026-04-25 07:24 | -36.85988 | 165.88977 | 39399 ft | 466 kts | 97° |
| 2026-04-25 07:24 | -36.86820 | 165.97018 | 39397 ft | 467 kts | 97° |
| 2026-04-25 07:25 | -36.87647 | 166.05061 | 39394 ft | 467 kts | 97° |
| 2026-04-25 07:25 | -36.88468 | 166.13103 | 39395 ft | 467 kts | 97° |
| 2026-04-25 07:26 | -36.89283 | 166.21147 | 39399 ft | 467 kts | 97° |
| 2026-04-25 07:26 | -36.90095 | 166.29207 | 39386 ft | 467 kts | 97° |
| 2026-04-25 07:27 | -36.90898 | 166.37238 | 39392 ft | 467 kts | 97° |
| 2026-04-25 07:27 | -36.91699 | 166.45305 | 39386 ft | 467 kts | 97° |
| 2026-04-25 07:28 | -36.92488 | 166.53307 | 39385 ft | 467 kts | 97° |
| 2026-04-25 07:28 | -36.93276 | 166.61363 | 39382 ft | 467 kts | 97° |
| 2026-04-25 07:29 | -36.94060 | 166.69425 | 39387 ft | 467 kts | 97° |
| 2026-04-25 07:29 | -36.94839 | 166.77492 | 39391 ft | 467 kts | 97° |
| 2026-04-25 07:30 | -36.95611 | 166.85555 | 39381 ft | 467 kts | 97° |
| 2026-04-25 07:30 | -36.96379 | 166.93626 | 39385 ft | 468 kts | 97° |
| 2026-04-25 07:31 | -36.97143 | 167.01712 | 39386 ft | 468 kts | 97° |
| 2026-04-25 07:31 | -36.97900 | 167.09798 | 39379 ft | 468 kts | 97° |
| 2026-04-25 07:32 | -36.98653 | 167.17884 | 39385 ft | 468 kts | 97° |
| 2026-04-25 07:32 | -36.99400 | 167.25981 | 39380 ft | 468 kts | 97° |
| 2026-04-25 07:33 | -37.00142 | 167.34076 | 39381 ft | 469 kts | 97° |
| 2026-04-25 07:33 | -37.00878 | 167.42175 | 39374 ft | 468 kts | 97° |
| 2026-04-25 07:34 | -37.01610 | 167.50280 | 39375 ft | 468 kts | 97° |
| 2026-04-25 07:34 | -37.02335 | 167.58382 | 39370 ft | 469 kts | 97° |
| 2026-04-25 07:35 | -37.03059 | 167.66529 | 39373 ft | 477 kts | 97° |
| 2026-04-25 07:35 | -37.03790 | 167.74822 | 39371 ft | 482 kts | 97° |
| 2026-04-25 07:36 | -37.04521 | 167.83181 | 39371 ft | 483 kts | 97° |
| 2026-04-25 07:36 | -37.05247 | 167.91552 | 39371 ft | 483 kts | 97° |
| 2026-04-25 07:37 | -37.05960 | 167.99855 | 39376 ft | 483 kts | 97° |
| 2026-04-25 07:37 | -37.06675 | 168.08218 | 39371 ft | 483 kts | 97° |
| 2026-04-25 07:38 | -37.07382 | 168.16591 | 39370 ft | 483 kts | 97° |
| 2026-04-25 07:38 | -37.08083 | 168.24953 | 39371 ft | 483 kts | 97° |
| 2026-04-25 07:39 | -37.08780 | 168.33336 | 39370 ft | 483 kts | 96° |
| 2026-04-25 07:39 | -37.09470 | 168.41726 | 39366 ft | 485 kts | 97° |
| 2026-04-25 07:40 | -37.10155 | 168.50126 | 39363 ft | 486 kts | 97° |
| 2026-04-25 07:40 | -37.10721 | 168.57121 | 39366 ft | 485 kts | 97° |
| 2026-04-25 07:41 | -37.11397 | 168.65532 | 39365 ft | 485 kts | 97° |
| 2026-04-25 07:41 | -37.12067 | 168.73945 | 39361 ft | 486 kts | 97° |
| 2026-04-25 07:42 | -37.12733 | 168.82374 | 39359 ft | 486 kts | 97° |
| 2026-04-25 07:42 | -37.13393 | 168.90818 | 39361 ft | 487 kts | 97° |
| 2026-04-25 07:43 | -37.14047 | 168.99260 | 39361 ft | 487 kts | 96° |
| 2026-04-25 07:43 | -37.14695 | 169.07703 | 39361 ft | 486 kts | 96° |
| 2026-04-25 07:44 | -37.15337 | 169.16150 | 39356 ft | 487 kts | 96° |
| 2026-04-25 07:44 | -37.15970 | 169.24556 | 39360 ft | 487 kts | 96° |
| 2026-04-25 07:45 | -37.16601 | 169.33011 | 39351 ft | 486 kts | 96° |
| 2026-04-25 07:45 | -37.17225 | 169.41474 | 39353 ft | 487 kts | 96° |
| 2026-04-25 07:46 | -37.17845 | 169.49924 | 39351 ft | 488 kts | 96° |
| 2026-04-25 07:46 | -37.18458 | 169.58408 | 39346 ft | 488 kts | 96° |
| 2026-04-25 07:47 | -37.19067 | 169.66908 | 39346 ft | 489 kts | 96° |
| 2026-04-25 07:47 | -37.19666 | 169.75348 | 39348 ft | 489 kts | 96° |
| 2026-04-25 07:48 | -37.20263 | 169.83845 | 39347 ft | 489 kts | 96° |
| 2026-04-25 07:48 | -37.20855 | 169.92365 | 39346 ft | 490 kts | 96° |
| 2026-04-25 07:49 | -37.21443 | 170.00895 | 39347 ft | 491 kts | 96° |
| 2026-04-25 07:49 | -37.22024 | 170.09433 | 39346 ft | 491 kts | 96° |
| 2026-04-25 07:50 | -37.22598 | 170.17970 | 39349 ft | 491 kts | 96° |
| 2026-04-25 07:50 | -37.23168 | 170.26512 | 39346 ft | 492 kts | 96° |
| 2026-04-25 07:51 | -37.23731 | 170.35067 | 39342 ft | 492 kts | 95° |
| 2026-04-25 07:51 | -37.24289 | 170.43631 | 39340 ft | 492 kts | 96° |
| 2026-04-25 07:52 | -37.24841 | 170.52205 | 39338 ft | 492 kts | 96° |
| 2026-04-25 07:52 | -37.25384 | 170.60719 | 39340 ft | 493 kts | 95° |
| 2026-04-25 07:53 | -37.25613 | 170.69324 | 39335 ft | 494 kts | 89° |
| 2026-04-25 07:53 | -37.25374 | 170.77958 | 39333 ft | 494 kts | 89° |
| 2026-04-25 07:54 | -37.25121 | 170.86576 | 39332 ft | 494 kts | 89° |
| 2026-04-25 07:54 | -37.24870 | 170.95204 | 39337 ft | 495 kts | 89° |
| 2026-04-25 07:55 | -37.24613 | 171.03840 | 39331 ft | 496 kts | 89° |
| 2026-04-25 07:55 | -37.24350 | 171.12497 | 39328 ft | 496 kts | 89° |
| 2026-04-25 07:56 | -37.24081 | 171.21150 | 39331 ft | 496 kts | 89° |
| 2026-04-25 07:56 | -37.23807 | 171.29794 | 39332 ft | 496 kts | 89° |
| 2026-04-25 07:57 | -37.23527 | 171.38404 | 39324 ft | 497 kts | 89° |
| 2026-04-25 07:57 | -37.23239 | 171.47068 | 39324 ft | 497 kts | 88° |
| 2026-04-25 07:58 | -37.22945 | 171.55745 | 39324 ft | 497 kts | 88° |
| 2026-04-25 07:58 | -37.22643 | 171.64425 | 39319 ft | 498 kts | 88° |
| 2026-04-25 07:59 | -37.22335 | 171.73109 | 39315 ft | 499 kts | 88° |
| 2026-04-25 07:59 | -37.22021 | 171.81817 | 39315 ft | 500 kts | 88° |
| 2026-04-25 08:00 | -37.21698 | 171.90538 | 39324 ft | 500 kts | 88° |
| 2026-04-25 08:00 | -37.21370 | 171.99264 | 39321 ft | 500 kts | 88° |
| 2026-04-25 08:01 | -37.21045 | 172.07766 | 39306 ft | 500 kts | 88° |
| 2026-04-25 08:01 | -37.20705 | 172.16477 | 39318 ft | 506 kts | 87° |
| 2026-04-25 08:02 | -37.20353 | 172.25323 | 39319 ft | 508 kts | 87° |
| 2026-04-25 08:02 | -37.19993 | 172.34179 | 39317 ft | 508 kts | 87° |
| 2026-04-25 08:03 | -37.19627 | 172.43044 | 39310 ft | 508 kts | 87° |
| 2026-04-25 08:03 | -37.19253 | 172.51919 | 39308 ft | 510 kts | 87° |
| 2026-04-25 08:04 | -37.18873 | 172.60807 | 39308 ft | 511 kts | 87° |
| 2026-04-25 08:04 | -37.18485 | 172.69703 | 39306 ft | 511 kts | 87° |
| 2026-04-25 08:05 | -37.18091 | 172.78597 | 39179 ft | 507 kts | 87° |
| 2026-04-25 08:05 | -37.17893 | 172.82982 | 38553 ft | 501 kts | 87° |
| 2026-04-25 08:05 | -37.17694 | 172.87329 | 37790 ft | 497 kts | 88° |
| 2026-04-25 08:06 | -37.17498 | 172.91572 | 37127 ft | 492 kts | 88° |
| 2026-04-25 08:06 | -37.17300 | 172.95883 | 36426 ft | 487 kts | 88° |
| 2026-04-25 08:06 | -37.17108 | 173.00036 | 35598 ft | 477 kts | 88° |
| 2026-04-25 08:06 | -37.16917 | 173.04145 | 34764 ft | 468 kts | 89° |
| 2026-04-25 08:07 | -37.16727 | 173.08214 | 33881 ft | 469 kts | 89° |
| 2026-04-25 08:07 | -37.16535 | 173.12294 | 33022 ft | 468 kts | 89° |
| 2026-04-25 08:07 | -37.16342 | 173.16359 | 32192 ft | 466 kts | 89° |
| 2026-04-25 08:07 | -37.16147 | 173.20421 | 31338 ft | 465 kts | 89° |
| 2026-04-25 08:08 | -37.15952 | 173.24468 | 30462 ft | 465 kts | 89° |
| 2026-04-25 08:08 | -37.15754 | 173.28525 | 29451 ft | 465 kts | 89° |
| 2026-04-25 08:08 | -37.15556 | 173.32556 | 28753 ft | 459 kts | 89° |
| 2026-04-25 08:08 | -37.15359 | 173.36513 | 28143 ft | 452 kts | 89° |
| 2026-04-25 08:09 | -37.15165 | 173.40412 | 27522 ft | 446 kts | 89° |
| 2026-04-25 08:09 | -37.14937 | 173.44222 | 26920 ft | 441 kts | 85° |
| 2026-04-25 08:09 | -37.14436 | 173.47988 | 26371 ft | 436 kts | 82° |
| 2026-04-25 08:09 | -37.13836 | 173.51689 | 25772 ft | 431 kts | 81° |
| 2026-04-25 08:10 | -37.13227 | 173.55351 | 25178 ft | 426 kts | 81° |
| 2026-04-25 08:10 | -37.12626 | 173.58969 | 24559 ft | 422 kts | 81° |
| 2026-04-25 08:10 | -37.12032 | 173.62555 | 23962 ft | 418 kts | 81° |
| 2026-04-25 08:10 | -37.11441 | 173.66122 | 23290 ft | 415 kts | 81° |
| 2026-04-25 08:11 | -37.10857 | 173.69647 | 22678 ft | 411 kts | 81° |
| 2026-04-25 08:11 | -37.10275 | 173.73157 | 22077 ft | 409 kts | 80° |
| 2026-04-25 08:11 | -37.09704 | 173.76593 | 21479 ft | 407 kts | 80° |
| 2026-04-25 08:11 | -37.09128 | 173.80055 | 20884 ft | 404 kts | 80° |
| 2026-04-25 08:12 | -37.08555 | 173.83491 | 20285 ft | 402 kts | 80° |
| 2026-04-25 08:12 | -37.07986 | 173.86900 | 19671 ft | 399 kts | 80° |
| 2026-04-25 08:12 | -37.07417 | 173.90300 | 19059 ft | 397 kts | 80° |
| 2026-04-25 08:12 | -37.06853 | 173.93667 | 18421 ft | 394 kts | 80° |
| 2026-04-25 08:13 | -37.06291 | 173.97011 | 17751 ft | 389 kts | 80° |
| 2026-04-25 08:13 | -37.05738 | 174.00298 | 17229 ft | 377 kts | 80° |
| 2026-04-25 08:13 | -37.05217 | 174.03367 | 17111 ft | 343 kts | 80° |
| 2026-04-25 08:14 | -37.04264 | 174.09008 | 16893 ft | 327 kts | 80° |
| 2026-04-25 08:14 | -37.03794 | 174.11794 | 16777 ft | 327 kts | 80° |
| 2026-04-25 08:14 | -37.03325 | 174.14573 | 16556 ft | 327 kts | 80° |
| 2026-04-25 08:14 | -37.02854 | 174.17347 | 16098 ft | 324 kts | 80° |
| 2026-04-25 08:15 | -37.02386 | 174.20098 | 15663 ft | 322 kts | 80° |
| 2026-04-25 08:15 | -37.01926 | 174.22801 | 15233 ft | 320 kts | 80° |
| 2026-04-25 08:15 | -37.01464 | 174.25509 | 14618 ft | 315 kts | 80° |
| 2026-04-25 08:15 | -37.01007 | 174.28181 | 14128 ft | 316 kts | 80° |
| 2026-04-25 08:16 | -37.00545 | 174.30890 | 13648 ft | 317 kts | 79° |
| 2026-04-25 08:16 | -37.00085 | 174.33571 | 13222 ft | 312 kts | 79° |
| 2026-04-25 08:16 | -36.99631 | 174.36217 | 12798 ft | 311 kts | 79° |
| 2026-04-25 08:16 | -36.99178 | 174.38859 | 12391 ft | 309 kts | 79° |
| 2026-04-25 08:17 | -36.98728 | 174.41469 | 11505 ft | 307 kts | 79° |
| 2026-04-25 08:17 | -36.98263 | 174.44104 | 10581 ft | 308 kts | 78° |
| 2026-04-25 08:17 | -36.97654 | 174.46657 | 10284 ft | 307 kts | 74° |
| 2026-04-25 08:17 | -36.96999 | 174.49081 | 10164 ft | 284 kts | 73° |
| 2026-04-25 08:18 | -36.96366 | 174.51365 | 10035 ft | 272 kts | 73° |
| 2026-04-25 08:18 | -36.95749 | 174.53598 | 9931 ft | 278 kts | 73° |
| 2026-04-25 08:18 | -36.95108 | 174.55934 | 9864 ft | 288 kts | 73° |
| 2026-04-25 08:18 | -36.94461 | 174.58284 | 9478 ft | 285 kts | 73° |
| 2026-04-25 08:19 | -36.93814 | 174.60632 | 9010 ft | 285 kts | 73° |
| 2026-04-25 08:19 | -36.93178 | 174.62943 | 8669 ft | 284 kts | 72° |
| 2026-04-25 08:19 | -36.92536 | 174.65274 | 8356 ft | 283 kts | 72° |
| 2026-04-25 08:19 | -36.91897 | 174.67592 | 8058 ft | 281 kts | 72° |
| 2026-04-25 08:20 | -36.91267 | 174.69874 | 7856 ft | 272 kts | 72° |
| 2026-04-25 08:20 | -36.90655 | 174.72088 | 7627 ft | 268 kts | 72° |
| 2026-04-25 08:20 | -36.90101 | 174.74295 | 7319 ft | 265 kts | 77° |
| 2026-04-25 08:20 | -36.89725 | 174.76541 | 7046 ft | 264 kts | 81° |
| 2026-04-25 08:21 | -36.89399 | 174.78793 | 6763 ft | 262 kts | 81° |
| 2026-04-25 08:21 | -36.89082 | 174.81037 | 6469 ft | 261 kts | 81° |
| 2026-04-25 08:21 | -36.88768 | 174.83264 | 6164 ft | 260 kts | 81° |
| 2026-04-25 08:21 | -36.88453 | 174.85487 | 5899 ft | 259 kts | 81° |
| 2026-04-25 08:22 | -36.88139 | 174.87699 | 5603 ft | 258 kts | 81° |
| 2026-04-25 08:22 | -36.87829 | 174.89864 | 5329 ft | 256 kts | 81° |
| 2026-04-25 08:22 | -36.87516 | 174.92049 | 5045 ft | 254 kts | 82° |
| 2026-04-25 08:22 | -36.87208 | 174.94213 | 4798 ft | 250 kts | 81° |
| 2026-04-25 08:23 | -36.86909 | 174.96298 | 4660 ft | 237 kts | 82° |
| 2026-04-25 08:23 | -36.86755 | 174.98291 | 4517 ft | 228 kts | 95° |
| 2026-04-25 08:23 | -36.87232 | 175.00101 | 4309 ft | 212 kts | 125° |
| 2026-04-25 08:23 | -36.88281 | 175.01263 | 4100 ft | 195 kts | 152° |
| 2026-04-25 08:24 | -36.89480 | 175.01877 | 3946 ft | 178 kts | 160° |
| 2026-04-25 08:24 | -36.90633 | 175.02363 | 3732 ft | 174 kts | 161° |
| 2026-04-25 08:24 | -36.91818 | 175.02681 | 3610 ft | 177 kts | 174° |
| 2026-04-25 08:24 | -36.93042 | 175.02549 | 3528 ft | 177 kts | 194° |
| 2026-04-25 08:25 | -36.94150 | 175.01888 | 3428 ft | 178 kts | 214° |
| 2026-04-25 08:25 | -36.94756 | 175.01202 | 3361 ft | 178 kts | 227° |
| 2026-04-25 08:25 | -36.95500 | 174.99365 | 3199 ft | 177 kts | 251° |
| 2026-04-25 08:25 | -36.95745 | 174.98411 | 3045 ft | 170 kts | 251° |
| 2026-04-25 08:26 | -36.96118 | 174.97054 | 2808 ft | 160 kts | 250° |
| 2026-04-25 08:26 | -36.96588 | 174.95378 | 2512 ft | 148 kts | 250° |
| 2026-04-25 08:26 | -36.96913 | 174.94199 | 2310 ft | 139 kts | 250° |
| 2026-04-25 08:26 | -36.97227 | 174.93059 | 2127 ft | 138 kts | 250° |
| 2026-04-25 08:27 | -36.97543 | 174.91918 | 1924 ft | 139 kts | 249° |
| 2026-04-25 08:27 | -36.97752 | 174.91160 | 1806 ft | 139 kts | 249° |
| 2026-04-25 08:27 | -36.98068 | 174.90016 | 1615 ft | 139 kts | 249° |
| 2026-04-25 08:27 | -36.98383 | 174.88872 | 1430 ft | 139 kts | 249° |
| 2026-04-25 08:28 | -36.98696 | 174.87735 | 1236 ft | 138 kts | 249° |
| 2026-04-25 08:28 | -36.99009 | 174.86601 | 1050 ft | 138 kts | 249° |
| 2026-04-25 08:28 | -36.99319 | 174.85473 | 844 ft | 137 kts | 249° |
| 2026-04-25 08:28 | -36.99630 | 174.84346 | 676 ft | 137 kts | 249° |
| 2026-04-25 08:29 | -36.99932 | 174.83215 | 475 ft | 140 kts | 250° |
| 2026-04-25 08:29 | -37.00247 | 174.82075 | 270 ft | 136 kts | 249° |
| 2026-04-25 08:29 | -37.00547 | 174.80980 | 138 ft | 134 kts | 249° |
| 2026-04-25 08:29 | -37.00859 | 174.79893 | 31 ft | 121 kts | 250° |
| 2026-04-25 08:30 | -37.01074 | 174.79103 | 31 ft | 71 kts | 251° |
| 2026-04-25 08:30 | -37.01174 | 174.78734 | 31 ft | 16 kts | 251° |
| 2026-04-25 08:30 | -37.01225 | 174.78547 | 31 ft | 32 kts | 251° |
| 2026-04-25 08:30 | -37.01242 | 174.78238 | 32 ft | 22 kts | 283° |
| 2026-04-25 08:31 | -37.01227 | 174.78157 | 32 ft | 0 kts | 282° |
| 2026-04-25 08:31 | -37.01227 | 174.78154 | 32 ft | 2 kts | 282° |
| 2026-04-25 08:32 | -37.01215 | 174.78113 | 32 ft | 6 kts | 306° |
| 2026-04-25 08:32 | -37.01171 | 174.78109 | 32 ft | 7 kts | 26° |
| 2026-04-25 08:32 | -37.01144 | 174.78153 | 32 ft | 0 kts | 68° |
| 2026-04-25 08:32 | -37.01140 | 174.78165 | 32 ft | 3 kts | 68° |
| 2026-04-25 08:33 | -37.01127 | 174.78207 | 32 ft | 7 kts | 69° |
| 2026-04-25 08:33 | -37.01109 | 174.78266 | 32 ft | 7 kts | 66° |
| 2026-04-25 08:33 | -37.01073 | 174.78284 | 31 ft | 6 kts | 1° |
| 2026-04-25 08:33 | -37.01058 | 174.78282 | 31 ft | 0 kts | 355° |
| 2026-04-25 08:34 | -37.01045 | 174.78280 | 32 ft | 5 kts | 351° |
| 2026-04-25 08:34 | -37.00987 | 174.78247 | 31 ft | 11 kts | 322° |
| 2026-04-25 08:35 | -37.00944 | 174.78183 | 31 ft | 11 kts | 301° |
| 2026-04-25 08:35 | -37.00911 | 174.78111 | 31 ft | 8 kts | 300° |
| 2026-04-25 08:35 | -37.00869 | 174.78050 | 30 ft | 8 kts | 326° |
| 2026-04-25 08:35 | -37.00846 | 174.78038 | 31 ft | 7 kts | 338° |
| 2026-04-25 08:36 | -37.00808 | 174.78053 | 31 ft | 5 kts | 47° |
| 2026-04-25 08:36 | -37.00797 | 174.78072 | 31 ft | 6 kts | 54° |
| 2026-04-25 08:36 | -37.00785 | 174.78100 | 31 ft | 2 kts | 67° |
| 2026-04-25 08:36 | -37.00781 | 174.78113 | 31 ft | 0 kts | 67° |